sensor_id;sensor_type;location;lat;lon;timestamp;P1;durP1;ratioP1;P2;durP2;ratioP2
26062;SDS011;13837;48.562;12.108;2023-02-28T00:00:25;14.82;;;13.82;;
26062;SDS011;13837;48.562;12.108;2023-02-28T00:02:51;15.48;;;14.48;;
26062;SDS011;13837;48.562;12.108;2023-02-28T00:05:18;15.20;;;14.10;;
26062;SDS011;13837;48.562;12.108;2023-02-28T00:07:45;15.13;;;14.02;;
26062;SDS011;13837;48.562;12.108;2023-02-28T00:10:12;15.38;;;14.35;;
26062;SDS011;13837;48.562;12.108;2023-02-28T00:12:39;15.80;;;14.70;;
26062;SDS011;13837;48.562;12.108;2023-02-28T00:15:05;15.73;;;14.63;;
26062;SDS011;13837;48.562;12.108;2023-02-28T00:17:32;16.33;;;15.05;;
26062;SDS011;13837;48.562;12.108;2023-02-28T00:19:58;16.25;;;14.55;;
26062;SDS011;13837;48.562;12.108;2023-02-28T00:22:41;15.10;;;14.10;;
26062;SDS011;13837;48.562;12.108;2023-02-28T00:25:08;14.77;;;13.77;;
26062;SDS011;13837;48.562;12.108;2023-02-28T00:27:34;14.60;;;13.60;;
26062;SDS011;13837;48.562;12.108;2023-02-28T00:30:03;23.67;;;22.33;;
26062;SDS011;13837;48.562;12.108;2023-02-28T00:32:32;14.68;;;13.68;;
26062;SDS011;13837;48.562;12.108;2023-02-28T00:35:00;15.30;;;14.00;;
26062;SDS011;13837;48.562;12.108;2023-02-28T00:37:26;15.20;;;14.10;;
26062;SDS011;13837;48.562;12.108;2023-02-28T00:39:52;15.15;;;13.95;;
26062;SDS011;13837;48.562;12.108;2023-02-28T00:42:19;14.75;;;13.65;;
26062;SDS011;13837;48.562;12.108;2023-02-28T00:44:46;14.98;;;13.85;;
26062;SDS011;13837;48.562;12.108;2023-02-28T00:47:15;15.48;;;14.18;;
26062;SDS011;13837;48.562;12.108;2023-02-28T00:49:42;16.67;;;15.52;;
26062;SDS011;13837;48.562;12.108;2023-02-28T00:52:08;16.45;;;15.15;;
26062;SDS011;13837;48.562;12.108;2023-02-28T00:54:34;15.50;;;14.18;;
26062;SDS011;13837;48.562;12.108;2023-02-28T00:57:00;15.95;;;14.68;;
26062;SDS011;13837;48.562;12.108;2023-02-28T00:59:26;16.02;;;14.82;;
26062;SDS011;13837;48.562;12.108;2023-02-28T01:01:53;15.07;;;13.98;;
26062;SDS011;13837;48.562;12.108;2023-02-28T01:04:20;15.85;;;14.73;;
26062;SDS011;13837;48.562;12.108;2023-02-28T01:06:46;17.27;;;15.82;;
26062;SDS011;13837;48.562;12.108;2023-02-28T01:09:12;15.68;;;14.40;;
26062;SDS011;13837;48.562;12.108;2023-02-28T01:11:41;16.63;;;15.35;;
26062;SDS011;13837;48.562;12.108;2023-02-28T01:14:11;17.23;;;15.88;;
26062;SDS011;13837;48.562;12.108;2023-02-28T01:16:38;17.38;;;15.98;;
26062;SDS011;13837;48.562;12.108;2023-02-28T01:19:04;16.17;;;15.02;;
26062;SDS011;13837;48.562;12.108;2023-02-28T01:21:30;17.20;;;15.85;;
26062;SDS011;13837;48.562;12.108;2023-02-28T01:23:57;17.60;;;16.30;;
26062;SDS011;13837;48.562;12.108;2023-02-28T01:26:23;18.10;;;16.75;;
26062;SDS011;13837;48.562;12.108;2023-02-28T01:28:50;17.35;;;15.98;;
26062;SDS011;13837;48.562;12.108;2023-02-28T01:31:17;17.85;;;16.45;;
26062;SDS011;13837;48.562;12.108;2023-02-28T01:33:44;17.02;;;15.73;;
26062;SDS011;13837;48.562;12.108;2023-02-28T01:36:11;16.92;;;15.50;;
26062;SDS011;13837;48.562;12.108;2023-02-28T01:38:38;17.02;;;15.75;;
26062;SDS011;13837;48.562;12.108;2023-02-28T01:41:04;18.33;;;16.83;;
26062;SDS011;13837;48.562;12.108;2023-02-28T01:46:08;17.45;;;16.05;;
26062;SDS011;13837;48.562;12.108;2023-02-28T01:48:36;16.92;;;15.55;;
26062;SDS011;13837;48.562;12.108;2023-02-28T01:51:04;16.80;;;15.40;;
26062;SDS011;13837;48.562;12.108;2023-02-28T01:53:35;25.70;;;24.10;;
26062;SDS011;13837;48.562;12.108;2023-02-28T01:56:03;16.20;;;15.00;;
26062;SDS011;13837;48.562;12.108;2023-02-28T01:58:31;25.93;;;24.37;;
26062;SDS011;13837;48.562;12.108;2023-02-28T02:00:57;17.02;;;15.60;;
26062;SDS011;13837;48.562;12.108;2023-02-28T02:03:25;16.73;;;15.50;;
26062;SDS011;13837;48.562;12.108;2023-02-28T02:05:51;16.52;;;15.23;;
26062;SDS011;13837;48.562;12.108;2023-02-28T02:08:21;17.33;;;16.15;;
26062;SDS011;13837;48.562;12.108;2023-02-28T02:10:50;18.40;;;16.80;;
26062;SDS011;13837;48.562;12.108;2023-02-28T02:13:21;17.95;;;16.30;;
26062;SDS011;13837;48.562;12.108;2023-02-28T02:16:00;16.88;;;15.48;;
26062;SDS011;13837;48.562;12.108;2023-02-28T02:18:41;17.35;;;15.82;;
26062;SDS011;13837;48.562;12.108;2023-02-28T02:37:34;17.90;;;16.40;;
26062;SDS011;13837;48.562;12.108;2023-02-28T02:47:40;18.83;;;17.00;;
26062;SDS011;13837;48.562;12.108;2023-02-28T02:50:08;17.35;;;15.80;;
26062;SDS011;13837;48.562;12.108;2023-02-28T02:52:38;17.58;;;16.08;;
26062;SDS011;13837;48.562;12.108;2023-02-28T02:55:06;18.02;;;16.35;;
26062;SDS011;13837;48.562;12.108;2023-02-28T02:57:37;18.77;;;16.73;;
26062;SDS011;13837;48.562;12.108;2023-02-28T03:00:06;17.40;;;15.90;;
26062;SDS011;13837;48.562;12.108;2023-02-28T03:02:34;18.42;;;16.67;;
26062;SDS011;13837;48.562;12.108;2023-02-28T03:05:03;18.25;;;16.70;;
26062;SDS011;13837;48.562;12.108;2023-02-28T03:07:30;18.27;;;16.55;;
26062;SDS011;13837;48.562;12.108;2023-02-28T03:09:56;18.00;;;16.50;;
26062;SDS011;13837;48.562;12.108;2023-02-28T03:12:33;17.85;;;16.25;;
26062;SDS011;13837;48.562;12.108;2023-02-28T03:15:08;17.95;;;16.35;;
26062;SDS011;13837;48.562;12.108;2023-02-28T03:25:23;18.98;;;17.17;;
26062;SDS011;13837;48.562;12.108;2023-02-28T03:30:34;18.77;;;17.15;;
26062;SDS011;13837;48.562;12.108;2023-02-28T03:33:06;19.00;;;17.20;;
26062;SDS011;13837;48.562;12.108;2023-02-28T03:35:34;18.73;;;17.15;;
26062;SDS011;13837;48.562;12.108;2023-02-28T03:38:07;17.58;;;15.98;;
26062;SDS011;13837;48.562;12.108;2023-02-28T03:40:35;17.98;;;16.33;;
26062;SDS011;13837;48.562;12.108;2023-02-28T03:43:03;20.38;;;18.42;;
26062;SDS011;13837;48.562;12.108;2023-02-28T03:45:32;19.40;;;17.58;;
26062;SDS011;13837;48.562;12.108;2023-02-28T03:50:38;19.35;;;17.60;;
26062;SDS011;13837;48.562;12.108;2023-02-28T03:55:37;19.17;;;17.38;;
26062;SDS011;13837;48.562;12.108;2023-02-28T03:58:15;19.85;;;17.95;;
26062;SDS011;13837;48.562;12.108;2023-02-28T04:00:54;19.60;;;17.65;;
26062;SDS011;13837;48.562;12.108;2023-02-28T04:03:21;19.15;;;17.33;;
26062;SDS011;13837;48.562;12.108;2023-02-28T04:05:49;20.73;;;18.65;;
26062;SDS011;13837;48.562;12.108;2023-02-28T04:08:16;18.95;;;17.15;;
26062;SDS011;13837;48.562;12.108;2023-02-28T04:10:42;20.35;;;18.25;;
26062;SDS011;13837;48.562;12.108;2023-02-28T04:13:09;19.27;;;17.30;;
26062;SDS011;13837;48.562;12.108;2023-02-28T04:15:35;19.15;;;17.45;;
26062;SDS011;13837;48.562;12.108;2023-02-28T04:18:01;20.25;;;18.42;;
26062;SDS011;13837;48.562;12.108;2023-02-28T04:20:27;18.60;;;16.92;;
26062;SDS011;13837;48.562;12.108;2023-02-28T04:22:54;19.65;;;17.85;;
26062;SDS011;13837;48.562;12.108;2023-02-28T04:25:20;18.67;;;17.00;;
26062;SDS011;13837;48.562;12.108;2023-02-28T04:27:47;19.08;;;17.27;;
26062;SDS011;13837;48.562;12.108;2023-02-28T04:30:13;20.95;;;19.05;;
26062;SDS011;13837;48.562;12.108;2023-02-28T04:32:40;19.65;;;17.75;;
26062;SDS011;13837;48.562;12.108;2023-02-28T04:35:06;19.85;;;17.90;;
26062;SDS011;13837;48.562;12.108;2023-02-28T04:37:32;20.20;;;18.20;;
26062;SDS011;13837;48.562;12.108;2023-02-28T04:40:00;20.15;;;18.15;;
26062;SDS011;13837;48.562;12.108;2023-02-28T04:42:26;20.75;;;18.55;;
26062;SDS011;13837;48.562;12.108;2023-02-28T04:44:52;20.17;;;17.90;;
26062;SDS011;13837;48.562;12.108;2023-02-28T04:47:18;20.40;;;18.58;;
26062;SDS011;13837;48.562;12.108;2023-02-28T04:49:44;20.98;;;18.88;;
26062;SDS011;13837;48.562;12.108;2023-02-28T04:52:10;20.23;;;18.33;;
26062;SDS011;13837;48.562;12.108;2023-02-28T04:54:38;21.85;;;19.70;;
26062;SDS011;13837;48.562;12.108;2023-02-28T04:57:04;20.80;;;18.63;;
26062;SDS011;13837;48.562;12.108;2023-02-28T04:59:31;22.55;;;20.20;;
26062;SDS011;13837;48.562;12.108;2023-02-28T05:01:57;20.05;;;18.15;;
26062;SDS011;13837;48.562;12.108;2023-02-28T05:04:23;20.95;;;18.85;;
26062;SDS011;13837;48.562;12.108;2023-02-28T05:06:49;20.60;;;18.63;;
26062;SDS011;13837;48.562;12.108;2023-02-28T05:09:15;20.90;;;18.90;;
26062;SDS011;13837;48.562;12.108;2023-02-28T05:11:42;19.65;;;17.83;;
26062;SDS011;13837;48.562;12.108;2023-02-28T05:14:12;21.25;;;19.10;;
26062;SDS011;13837;48.562;12.108;2023-02-28T05:16:38;20.50;;;18.35;;
26062;SDS011;13837;48.562;12.108;2023-02-28T05:19:04;21.30;;;19.17;;
26062;SDS011;13837;48.562;12.108;2023-02-28T05:21:31;21.05;;;18.92;;
26062;SDS011;13837;48.562;12.108;2023-02-28T05:23:59;20.60;;;18.52;;
26062;SDS011;13837;48.562;12.108;2023-02-28T05:26:25;22.30;;;20.10;;
26062;SDS011;13837;48.562;12.108;2023-02-28T05:28:52;21.70;;;19.58;;
26062;SDS011;13837;48.562;12.108;2023-02-28T05:31:18;21.08;;;18.98;;
26062;SDS011;13837;48.562;12.108;2023-02-28T05:33:44;21.98;;;19.65;;
26062;SDS011;13837;48.562;12.108;2023-02-28T05:36:11;20.90;;;18.55;;
26062;SDS011;13837;48.562;12.108;2023-02-28T05:38:37;21.45;;;19.25;;
26062;SDS011;13837;48.562;12.108;2023-02-28T05:41:07;23.50;;;21.23;;
26062;SDS011;13837;48.562;12.108;2023-02-28T05:43:34;22.85;;;20.30;;
26062;SDS011;13837;48.562;12.108;2023-02-28T05:46:07;23.02;;;20.63;;
26062;SDS011;13837;48.562;12.108;2023-02-28T05:48:34;22.17;;;20.08;;
26062;SDS011;13837;48.562;12.108;2023-02-28T05:51:00;20.92;;;18.75;;
26062;SDS011;13837;48.562;12.108;2023-02-28T05:53:27;22.17;;;19.30;;
26062;SDS011;13837;48.562;12.108;2023-02-28T05:55:53;22.90;;;20.65;;
26062;SDS011;13837;48.562;12.108;2023-02-28T05:58:20;21.10;;;18.90;;
26062;SDS011;13837;48.562;12.108;2023-02-28T06:00:46;20.95;;;18.75;;
26062;SDS011;13837;48.562;12.108;2023-02-28T06:03:12;21.05;;;19.15;;
26062;SDS011;13837;48.562;12.108;2023-02-28T06:05:38;20.08;;;18.08;;
26062;SDS011;13837;48.562;12.108;2023-02-28T06:08:04;21.00;;;18.77;;
26062;SDS011;13837;48.562;12.108;2023-02-28T06:10:32;21.35;;;19.15;;
26062;SDS011;13837;48.562;12.108;2023-02-28T06:13:01;20.60;;;18.58;;
26062;SDS011;13837;48.562;12.108;2023-02-28T06:15:27;21.00;;;19.05;;
26062;SDS011;13837;48.562;12.108;2023-02-28T06:17:54;21.50;;;19.27;;
26062;SDS011;13837;48.562;12.108;2023-02-28T06:20:21;23.67;;;20.50;;
26062;SDS011;13837;48.562;12.108;2023-02-28T06:22:48;23.33;;;21.10;;
26062;SDS011;13837;48.562;12.108;2023-02-28T06:25:16;22.55;;;20.23;;
26062;SDS011;13837;48.562;12.108;2023-02-28T06:27:42;23.30;;;21.10;;
26062;SDS011;13837;48.562;12.108;2023-02-28T06:30:09;22.55;;;20.25;;
26062;SDS011;13837;48.562;12.108;2023-02-28T06:32:35;21.08;;;19.10;;
26062;SDS011;13837;48.562;12.108;2023-02-28T06:35:01;23.85;;;19.83;;
26062;SDS011;13837;48.562;12.108;2023-02-28T06:37:30;21.40;;;18.90;;
26062;SDS011;13837;48.562;12.108;2023-02-28T06:39:56;20.50;;;18.30;;
26062;SDS011;13837;48.562;12.108;2023-02-28T06:42:23;19.33;;;17.52;;
26062;SDS011;13837;48.562;12.108;2023-02-28T06:44:54;19.02;;;16.92;;
26062;SDS011;13837;48.562;12.108;2023-02-28T06:47:20;19.30;;;17.45;;
26062;SDS011;13837;48.562;12.108;2023-02-28T06:49:47;18.30;;;16.17;;
26062;SDS011;13837;48.562;12.108;2023-02-28T06:52:14;19.38;;;17.25;;
26062;SDS011;13837;48.562;12.108;2023-02-28T06:54:40;23.48;;;16.92;;
26062;SDS011;13837;48.562;12.108;2023-02-28T06:57:07;18.67;;;16.42;;
26062;SDS011;13837;48.562;12.108;2023-02-28T06:59:33;18.88;;;16.77;;
26062;SDS011;13837;48.562;12.108;2023-02-28T07:02:00;19.52;;;17.52;;
26062;SDS011;13837;48.562;12.108;2023-02-28T07:04:27;20.17;;;18.05;;
26062;SDS011;13837;48.562;12.108;2023-02-28T07:06:55;20.50;;;18.40;;
26062;SDS011;13837;48.562;12.108;2023-02-28T07:09:23;20.65;;;18.48;;
26062;SDS011;13837;48.562;12.108;2023-02-28T07:11:49;21.00;;;19.05;;
26062;SDS011;13837;48.562;12.108;2023-02-28T07:14:16;22.08;;;19.98;;
26062;SDS011;13837;48.562;12.108;2023-02-28T07:16:42;22.35;;;20.27;;
26062;SDS011;13837;48.562;12.108;2023-02-28T07:19:10;22.45;;;20.20;;
26062;SDS011;13837;48.562;12.108;2023-02-28T07:21:37;22.52;;;20.27;;
26062;SDS011;13837;48.562;12.108;2023-02-28T07:24:03;22.33;;;20.15;;
26062;SDS011;13837;48.562;12.108;2023-02-28T07:26:30;24.27;;;21.95;;
26062;SDS011;13837;48.562;12.108;2023-02-28T07:28:59;21.80;;;19.80;;
26062;SDS011;13837;48.562;12.108;2023-02-28T07:31:25;24.60;;;22.10;;
26062;SDS011;13837;48.562;12.108;2023-02-28T07:33:51;23.95;;;21.42;;
26062;SDS011;13837;48.562;12.108;2023-02-28T07:36:19;31.42;;;25.65;;
26062;SDS011;13837;48.562;12.108;2023-02-28T07:38:46;28.23;;;22.08;;
26062;SDS011;13837;48.562;12.108;2023-02-28T07:41:17;26.40;;;22.10;;
26062;SDS011;13837;48.562;12.108;2023-02-28T07:43:43;22.83;;;20.50;;
26062;SDS011;13837;48.562;12.108;2023-02-28T07:46:11;24.10;;;21.65;;
26062;SDS011;13837;48.562;12.108;2023-02-28T07:51:06;22.33;;;20.08;;
26062;SDS011;13837;48.562;12.108;2023-02-28T07:53:32;22.70;;;20.50;;
26062;SDS011;13837;48.562;12.108;2023-02-28T07:55:59;22.48;;;20.48;;
26062;SDS011;13837;48.562;12.108;2023-02-28T07:58:27;21.80;;;19.45;;
26062;SDS011;13837;48.562;12.108;2023-02-28T08:00:54;21.30;;;19.50;;
26062;SDS011;13837;48.562;12.108;2023-02-28T08:03:21;21.45;;;19.45;;
26062;SDS011;13837;48.562;12.108;2023-02-28T08:05:48;21.10;;;19.20;;
26062;SDS011;13837;48.562;12.108;2023-02-28T08:08:15;21.83;;;19.80;;
26062;SDS011;13837;48.562;12.108;2023-02-28T08:10:41;20.70;;;18.80;;
26062;SDS011;13837;48.562;12.108;2023-02-28T08:13:08;21.00;;;18.80;;
26062;SDS011;13837;48.562;12.108;2023-02-28T08:15:34;21.70;;;19.50;;
26062;SDS011;13837;48.562;12.108;2023-02-28T08:18:01;24.67;;;20.27;;
26062;SDS011;13837;48.562;12.108;2023-02-28T08:20:27;19.90;;;17.80;;
26062;SDS011;13837;48.562;12.108;2023-02-28T08:22:53;20.17;;;18.27;;
26062;SDS011;13837;48.562;12.108;2023-02-28T08:25:19;19.75;;;17.83;;
26062;SDS011;13837;48.562;12.108;2023-02-28T08:27:46;19.60;;;17.77;;
26062;SDS011;13837;48.562;12.108;2023-02-28T08:30:13;19.42;;;17.45;;
26062;SDS011;13837;48.562;12.108;2023-02-28T08:32:39;24.65;;;19.30;;
26062;SDS011;13837;48.562;12.108;2023-02-28T08:35:06;21.17;;;18.90;;
26062;SDS011;13837;48.562;12.108;2023-02-28T08:37:34;20.13;;;17.95;;
26062;SDS011;13837;48.562;12.108;2023-02-28T08:40:00;20.83;;;18.25;;
26062;SDS011;13837;48.562;12.108;2023-02-28T08:42:29;20.75;;;18.63;;
26062;SDS011;13837;48.562;12.108;2023-02-28T08:44:56;21.65;;;18.52;;
26062;SDS011;13837;48.562;12.108;2023-02-28T08:47:22;20.65;;;18.75;;
26062;SDS011;13837;48.562;12.108;2023-02-28T08:49:48;20.70;;;18.63;;
26062;SDS011;13837;48.562;12.108;2023-02-28T08:52:14;20.23;;;18.23;;
26062;SDS011;13837;48.562;12.108;2023-02-28T08:54:40;19.75;;;17.77;;
26062;SDS011;13837;48.562;12.108;2023-02-28T08:57:06;19.98;;;17.85;;
26062;SDS011;13837;48.562;12.108;2023-02-28T08:59:32;19.92;;;17.92;;
26062;SDS011;13837;48.562;12.108;2023-02-28T09:01:58;19.50;;;17.60;;
26062;SDS011;13837;48.562;12.108;2023-02-28T09:04:25;19.02;;;17.17;;
26062;SDS011;13837;48.562;12.108;2023-02-28T09:06:51;19.00;;;17.13;;
26062;SDS011;13837;48.562;12.108;2023-02-28T09:09:20;21.42;;;17.38;;
26062;SDS011;13837;48.562;12.108;2023-02-28T09:11:46;18.63;;;16.73;;
26062;SDS011;13837;48.562;12.108;2023-02-28T09:14:12;18.63;;;16.63;;
26062;SDS011;13837;48.562;12.108;2023-02-28T09:16:38;20.92;;;18.10;;
26062;SDS011;13837;48.562;12.108;2023-02-28T09:19:05;18.40;;;16.67;;
26062;SDS011;13837;48.562;12.108;2023-02-28T09:21:34;16.80;;;15.07;;
26062;SDS011;13837;48.562;12.108;2023-02-28T09:24:00;18.55;;;16.52;;
26062;SDS011;13837;48.562;12.108;2023-02-28T09:26:27;21.70;;;16.67;;
26062;SDS011;13837;48.562;12.108;2023-02-28T09:28:54;18.52;;;16.45;;
26062;SDS011;13837;48.562;12.108;2023-02-28T09:31:22;18.42;;;16.50;;
26062;SDS011;13837;48.562;12.108;2023-02-28T09:33:49;18.77;;;15.90;;
26062;SDS011;13837;48.562;12.108;2023-02-28T09:36:16;18.30;;;16.50;;
26062;SDS011;13837;48.562;12.108;2023-02-28T09:38:42;17.73;;;15.30;;
26062;SDS011;13837;48.562;12.108;2023-02-28T09:41:16;17.65;;;15.18;;
26062;SDS011;13837;48.562;12.108;2023-02-28T09:43:44;17.05;;;15.25;;
26062;SDS011;13837;48.562;12.108;2023-02-28T09:48:56;17.90;;;15.18;;
26062;SDS011;13837;48.562;12.108;2023-02-28T09:53:49;18.17;;;15.60;;
26062;SDS011;13837;48.562;12.108;2023-02-28T09:56:24;20.75;;;15.35;;
26062;SDS011;13837;48.562;12.108;2023-02-28T09:58:58;18.23;;;14.70;;
26062;SDS011;13837;48.562;12.108;2023-02-28T10:03:56;17.30;;;15.50;;
26062;SDS011;13837;48.562;12.108;2023-02-28T10:06:26;16.88;;;15.15;;
26062;SDS011;13837;48.562;12.108;2023-02-28T10:11:19;16.73;;;14.73;;
26062;SDS011;13837;48.562;12.108;2023-02-28T10:16:37;16.48;;;13.88;;
26062;SDS011;13837;48.562;12.108;2023-02-28T10:19:03;18.83;;;15.20;;
26062;SDS011;13837;48.562;12.108;2023-02-28T10:21:31;17.15;;;14.73;;
26062;SDS011;13837;48.562;12.108;2023-02-28T10:24:03;17.40;;;14.32;;
26062;SDS011;13837;48.562;12.108;2023-02-28T10:26:31;16.75;;;14.35;;
26062;SDS011;13837;48.562;12.108;2023-02-28T10:28:58;16.55;;;14.13;;
26062;SDS011;13837;48.562;12.108;2023-02-28T10:31:24;15.00;;;13.50;;
26062;SDS011;13837;48.562;12.108;2023-02-28T10:33:50;18.73;;;14.52;;
26062;SDS011;13837;48.562;12.108;2023-02-28T10:36:18;15.27;;;13.75;;
26062;SDS011;13837;48.562;12.108;2023-02-28T10:38:45;14.32;;;12.77;;
26062;SDS011;13837;48.562;12.108;2023-02-28T10:41:15;14.85;;;12.98;;
26062;SDS011;13837;48.562;12.108;2023-02-28T10:43:42;17.45;;;13.30;;
26062;SDS011;13837;48.562;12.108;2023-02-28T10:48:37;15.93;;;12.43;;
26062;SDS011;13837;48.562;12.108;2023-02-28T10:51:04;17.30;;;13.40;;
26062;SDS011;13837;48.562;12.108;2023-02-28T10:53:31;17.05;;;12.90;;
26062;SDS011;13837;48.562;12.108;2023-02-28T11:01:15;15.93;;;13.57;;
26062;SDS011;13837;48.562;12.108;2023-02-28T11:03:41;14.55;;;12.75;;
26062;SDS011;13837;48.562;12.108;2023-02-28T11:06:08;15.15;;;13.38;;
26062;SDS011;13837;48.562;12.108;2023-02-28T11:08:49;15.10;;;13.45;;
26062;SDS011;13837;48.562;12.108;2023-02-28T11:11:15;15.65;;;13.07;;
26062;SDS011;13837;48.562;12.108;2023-02-28T11:13:42;15.95;;;13.05;;
26062;SDS011;13837;48.562;12.108;2023-02-28T11:16:10;14.45;;;12.90;;
26062;SDS011;13837;48.562;12.108;2023-02-28T11:18:44;15.38;;;12.75;;
26062;SDS011;13837;48.562;12.108;2023-02-28T11:21:17;17.42;;;12.80;;
26062;SDS011;13837;48.562;12.108;2023-02-28T11:23:44;13.45;;;12.00;;
26062;SDS011;13837;48.562;12.108;2023-02-28T11:26:10;16.45;;;13.23;;
26062;SDS011;13837;48.562;12.108;2023-02-28T11:28:40;16.35;;;13.07;;
26062;SDS011;13837;48.562;12.108;2023-02-28T11:34:40;14.55;;;12.43;;
26062;SDS011;13837;48.562;12.108;2023-02-28T11:36:36;14.57;;;12.93;;
26062;SDS011;13837;48.562;12.108;2023-02-28T11:39:10;16.58;;;13.55;;
26062;SDS011;13837;48.562;12.108;2023-02-28T11:41:40;14.13;;;12.20;;
26062;SDS011;13837;48.562;12.108;2023-02-28T11:49:21;15.77;;;13.75;;
26062;SDS011;13837;48.562;12.108;2023-02-28T11:51:59;15.52;;;13.10;;
26062;SDS011;13837;48.562;12.108;2023-02-28T11:56:58;14.55;;;13.05;;
26062;SDS011;13837;48.562;12.108;2023-02-28T11:59:35;15.10;;;12.90;;
26062;SDS011;13837;48.562;12.108;2023-02-28T12:19:38;14.80;;;12.75;;
26062;SDS011;13837;48.562;12.108;2023-02-28T12:27:33;14.45;;;12.68;;
26062;SDS011;13837;48.562;12.108;2023-02-28T12:30:13;15.10;;;12.40;;
26062;SDS011;13837;48.562;12.108;2023-02-28T12:32:54;16.02;;;13.32;;
26062;SDS011;13837;48.562;12.108;2023-02-28T12:35:24;15.95;;;12.57;;
26062;SDS011;13837;48.562;12.108;2023-02-28T12:38:09;15.77;;;13.35;;
26062;SDS011;13837;48.562;12.108;2023-02-28T12:43:14;14.30;;;12.80;;
26062;SDS011;13837;48.562;12.108;2023-02-28T12:48:15;16.88;;;13.73;;
26062;SDS011;13837;48.562;12.108;2023-02-28T12:50:41;17.30;;;12.90;;
26062;SDS011;13837;48.562;12.108;2023-02-28T12:55:48;15.25;;;13.68;;
26062;SDS011;13837;48.562;12.108;2023-02-28T13:09:04;14.77;;;13.00;;
26062;SDS011;13837;48.562;12.108;2023-02-28T13:11:43;17.90;;;13.60;;
26062;SDS011;13837;48.562;12.108;2023-02-28T13:14:29;16.13;;;12.95;;
26062;SDS011;13837;48.562;12.108;2023-02-28T13:16:59;15.20;;;13.63;;
26062;SDS011;13837;48.562;12.108;2023-02-28T13:19:27;14.88;;;13.05;;
26062;SDS011;13837;48.562;12.108;2023-02-28T13:21:54;16.00;;;13.63;;
26062;SDS011;13837;48.562;12.108;2023-02-28T13:29:38;14.85;;;13.05;;
26062;SDS011;13837;48.562;12.108;2023-02-28T13:42:51;15.63;;;13.27;;
26062;SDS011;13837;48.562;12.108;2023-02-28T13:47:29;14.80;;;13.10;;
26062;SDS011;13837;48.562;12.108;2023-02-28T13:50:14;14.68;;;13.13;;
26062;SDS011;13837;48.562;12.108;2023-02-28T13:53:03;14.15;;;12.20;;
26062;SDS011;13837;48.562;12.108;2023-02-28T14:00:46;18.10;;;13.63;;
26062;SDS011;13837;48.562;12.108;2023-02-28T14:03:23;17.35;;;13.10;;
26062;SDS011;13837;48.562;12.108;2023-02-28T14:08:38;15.95;;;12.02;;
26062;SDS011;13837;48.562;12.108;2023-02-28T14:11:22;14.73;;;13.18;;
26062;SDS011;13837;48.562;12.108;2023-02-28T14:13:50;16.48;;;14.25;;
26062;SDS011;13837;48.562;12.108;2023-02-28T14:16:17;14.23;;;12.68;;
26062;SDS011;13837;48.562;12.108;2023-02-28T14:18:56;19.45;;;14.02;;
26062;SDS011;13837;48.562;12.108;2023-02-28T14:21:33;15.90;;;13.77;;
26062;SDS011;13837;48.562;12.108;2023-02-28T14:24:16;16.90;;;13.88;;
26062;SDS011;13837;48.562;12.108;2023-02-28T14:29:33;16.75;;;13.85;;
26062;SDS011;13837;48.562;12.108;2023-02-28T14:37:51;17.35;;;14.52;;
26062;SDS011;13837;48.562;12.108;2023-02-28T14:42:55;18.95;;;14.50;;
26062;SDS011;13837;48.562;12.108;2023-02-28T14:45:22;19.33;;;15.07;;
26062;SDS011;13837;48.562;12.108;2023-02-28T14:47:49;16.80;;;14.13;;
26062;SDS011;13837;48.562;12.108;2023-02-28T14:50:22;15.45;;;13.85;;
26062;SDS011;13837;48.562;12.108;2023-02-28T14:52:52;18.23;;;14.85;;
26062;SDS011;13837;48.562;12.108;2023-02-28T14:55:20;17.08;;;14.32;;
26062;SDS011;13837;48.562;12.108;2023-02-28T14:57:53;18.52;;;14.52;;
26062;SDS011;13837;48.562;12.108;2023-02-28T15:02:49;18.63;;;15.05;;
26062;SDS011;13837;48.562;12.108;2023-02-28T15:07:41;19.85;;;15.68;;
26062;SDS011;13837;48.562;12.108;2023-02-28T15:10:16;18.23;;;16.00;;
26062;SDS011;13837;48.562;12.108;2023-02-28T15:12:53;19.58;;;17.35;;
26062;SDS011;13837;48.562;12.108;2023-02-28T15:15:21;17.85;;;15.13;;
26062;SDS011;13837;48.562;12.108;2023-02-28T15:17:49;20.05;;;15.57;;
26062;SDS011;13837;48.562;12.108;2023-02-28T15:20:16;19.67;;;14.73;;
26062;SDS011;13837;48.562;12.108;2023-02-28T15:22:43;17.83;;;14.70;;
26062;SDS011;13837;48.562;12.108;2023-02-28T15:25:11;19.77;;;15.63;;
26062;SDS011;13837;48.562;12.108;2023-02-28T15:27:42;18.40;;;15.38;;
26062;SDS011;13837;48.562;12.108;2023-02-28T15:30:28;19.83;;;14.90;;
26062;SDS011;13837;48.562;12.108;2023-02-28T15:33:06;17.30;;;14.50;;
26062;SDS011;13837;48.562;12.108;2023-02-28T15:35:33;18.50;;;15.25;;
26062;SDS011;13837;48.562;12.108;2023-02-28T15:38:14;19.35;;;15.80;;
26062;SDS011;13837;48.562;12.108;2023-02-28T15:40:41;19.85;;;15.88;;
26062;SDS011;13837;48.562;12.108;2023-02-28T15:50:46;24.48;;;18.50;;
26062;SDS011;13837;48.562;12.108;2023-02-28T15:53:15;22.45;;;16.83;;
26062;SDS011;13837;48.562;12.108;2023-02-28T15:55:42;19.63;;;17.52;;
26062;SDS011;13837;48.562;12.108;2023-02-28T15:58:08;18.35;;;15.75;;
26062;SDS011;13837;48.562;12.108;2023-02-28T16:03:22;21.60;;;16.88;;
26062;SDS011;13837;48.562;12.108;2023-02-28T16:06:07;22.73;;;17.17;;
26062;SDS011;13837;48.562;12.108;2023-02-28T16:08:33;22.40;;;17.83;;
26062;SDS011;13837;48.562;12.108;2023-02-28T16:10:59;22.75;;;17.92;;
26062;SDS011;13837;48.562;12.108;2023-02-28T16:13:25;23.95;;;19.45;;
26062;SDS011;13837;48.562;12.108;2023-02-28T16:15:51;42.47;;;32.80;;
26062;SDS011;13837;48.562;12.108;2023-02-28T16:18:19;23.80;;;20.58;;
26062;SDS011;13837;48.562;12.108;2023-02-28T16:20:45;22.50;;;18.65;;
26062;SDS011;13837;48.562;12.108;2023-02-28T16:23:11;23.80;;;17.42;;
26062;SDS011;13837;48.562;12.108;2023-02-28T16:25:42;22.38;;;17.67;;
26062;SDS011;13837;48.562;12.108;2023-02-28T16:28:12;29.98;;;20.38;;
26062;SDS011;13837;48.562;12.108;2023-02-28T16:30:41;24.13;;;19.27;;
26062;SDS011;13837;48.562;12.108;2023-02-28T16:33:07;25.58;;;19.80;;
26062;SDS011;13837;48.562;12.108;2023-02-28T16:35:34;25.27;;;20.42;;
26062;SDS011;13837;48.562;12.108;2023-02-28T16:38:00;26.23;;;18.83;;
26062;SDS011;13837;48.562;12.108;2023-02-28T16:40:26;27.02;;;20.63;;
26062;SDS011;13837;48.562;12.108;2023-02-28T16:42:57;40.85;;;33.22;;
26062;SDS011;13837;48.562;12.108;2023-02-28T16:45:25;30.93;;;26.77;;
26062;SDS011;13837;48.562;12.108;2023-02-28T16:47:52;26.67;;;21.55;;
26062;SDS011;13837;48.562;12.108;2023-02-28T16:50:19;24.92;;;19.77;;
26062;SDS011;13837;48.562;12.108;2023-02-28T16:52:45;25.58;;;19.67;;
26062;SDS011;13837;48.562;12.108;2023-02-28T16:55:12;27.67;;;18.80;;
26062;SDS011;13837;48.562;12.108;2023-02-28T16:57:38;24.35;;;18.40;;
26062;SDS011;13837;48.562;12.108;2023-02-28T17:00:06;25.75;;;19.27;;
26062;SDS011;13837;48.562;12.108;2023-02-28T17:02:33;27.05;;;19.02;;
26062;SDS011;13837;48.562;12.108;2023-02-28T17:04:59;30.10;;;22.08;;